sensor_id;sensor_type;location;lat;lon;timestamp;pressure;altitude;pressure_sealevel;temperature;humidity
17525;BME280;40431;52.198;9.902;2023-02-04T00:02:21;101817.72;;;4.54;100.00
17525;BME280;40431;52.198;9.902;2023-02-04T00:04:47;101824.94;;;4.48;100.00
17525;BME280;40431;52.198;9.902;2023-02-04T00:07:14;101835.63;;;4.51;100.00
17525;BME280;40431;52.198;9.902;2023-02-04T00:09:42;101827.56;;;4.51;100.00
17525;BME280;40431;52.198;9.902;2023-02-04T00:12:12;101839.38;;;4.40;100.00
17525;BME280;40431;52.198;9.902;2023-02-04T00:14:38;101836.66;;;4.44;100.00
17525;BME280;40431;52.198;9.902;2023-02-04T00:17:05;101837.59;;;4.39;100.00
17525;BME280;40431;52.198;9.902;2023-02-04T00:19:32;101837.59;;;4.39;100.00
17525;BME280;40431;52.198;9.902;2023-02-04T00:21:58;101837.63;;;4.37;100.00
17525;BME280;40431;52.198;9.902;2023-02-04T00:24:25;101845.69;;;4.37;100.00
17525;BME280;40431;52.198;9.902;2023-02-04T00:26:52;101851.97;;;4.36;100.00
17525;BME280;40431;52.198;9.902;2023-02-04T00:29:19;101856.34;;;4.43;100.00
17525;BME280;40431;52.198;9.902;2023-02-04T00:31:46;101849.25;;;4.39;100.00
17525;BME280;40431;52.198;9.902;2023-02-04T00:34:12;101860.94;;;4.37;100.00
17525;BME280;40431;52.198;9.902;2023-02-04T00:36:39;101869.00;;;4.35;100.00
17525;BME280;40431;52.198;9.902;2023-02-04T00:39:05;101859.34;;;4.20;100.00
17525;BME280;40431;52.198;9.902;2023-02-04T00:41:31;101869.22;;;4.20;100.00
17525;BME280;40431;52.198;9.902;2023-02-04T00:43:58;101879.94;;;4.21;100.00
17525;BME280;40431;52.198;9.902;2023-02-04T00:46:25;101867.41;;;4.20;100.00
17525;BME280;40431;52.198;9.902;2023-02-04T00:48:52;101879.91;;;4.23;100.00
17525;BME280;40431;52.198;9.902;2023-02-04T00:51:18;101887.09;;;4.21;100.00
17525;BME280;40431;52.198;9.902;2023-02-04T00:53:45;101894.34;;;4.14;100.00
17525;BME280;40431;52.198;9.902;2023-02-04T00:56:11;101905.13;;;4.09;100.00
17525;BME280;40431;52.198;9.902;2023-02-04T00:58:37;101914.25;;;3.96;100.00
17525;BME280;40431;52.198;9.902;2023-02-04T01:01:04;101933.00;;;3.99;100.00
17525;BME280;40431;52.198;9.902;2023-02-04T01:03:32;101936.56;;;3.99;100.00
17525;BME280;40431;52.198;9.902;2023-02-04T01:05:58;101942.75;;;4.06;100.00
17525;BME280;40431;52.198;9.902;2023-02-04T01:08:24;101949.91;;;4.07;100.00
17525;BME280;40431;52.198;9.902;2023-02-04T01:10:51;101949.88;;;4.10;100.00
17525;BME280;40431;52.198;9.902;2023-02-04T01:13:17;101963.38;;;4.03;100.00
17525;BME280;40431;52.198;9.902;2023-02-04T01:15:46;101974.19;;;3.96;100.00
17525;BME280;40431;52.198;9.902;2023-02-04T01:18:13;101976.88;;;3.96;100.00
17525;BME280;40431;52.198;9.902;2023-02-04T01:20:40;101973.22;;;4.02;100.00
17525;BME280;40431;52.198;9.902;2023-02-04T01:23:07;101983.16;;;3.94;100.00
17525;BME280;40431;52.198;9.902;2023-02-04T01:25:33;101989.38;;;3.97;100.00
17525;BME280;40431;52.198;9.902;2023-02-04T01:28:00;101990.28;;;3.95;100.00
17525;BME280;40431;52.198;9.902;2023-02-04T01:30:26;101994.78;;;3.93;100.00
17525;BME280;40431;52.198;9.902;2023-02-04T01:32:52;102003.59;;;4.04;100.00
17525;BME280;40431;52.198;9.902;2023-02-04T01:35:19;102012.63;;;3.98;100.00
17525;BME280;40431;52.198;9.902;2023-02-04T01:37:46;102013.63;;;3.90;100.00
17525;BME280;40431;52.198;9.902;2023-02-04T01:40:13;102015.41;;;3.88;100.00
17525;BME280;40431;52.198;9.902;2023-02-04T01:42:40;102022.50;;;3.93;100.00
17525;BME280;40431;52.198;9.902;2023-02-04T01:45:07;102033.25;;;3.92;100.00
17525;BME280;40431;52.198;9.902;2023-02-04T01:47:34;102041.34;;;3.89;100.00
17525;BME280;40431;52.198;9.902;2023-02-04T01:50:01;102048.50;;;3.90;100.00
17525;BME280;40431;52.198;9.902;2023-02-04T01:52:30;102048.50;;;3.91;100.00
17525;BME280;40431;52.198;9.902;2023-02-04T01:55:00;102061.06;;;3.86;100.00
17525;BME280;40431;52.198;9.902;2023-02-04T01:57:27;102061.09;;;3.81;100.00
17525;BME280;40431;52.198;9.902;2023-02-04T01:59:54;102064.63;;;3.87;100.00
17525;BME280;40431;52.198;9.902;2023-02-04T02:02:41;102076.25;;;3.84;100.00
17525;BME280;40431;52.198;9.902;2023-02-04T02:05:11;102071.81;;;3.84;100.00
17525;BME280;40431;52.198;9.902;2023-02-04T02:07:38;102078.03;;;3.87;100.00
17525;BME280;40431;52.198;9.902;2023-02-04T02:10:07;102085.25;;;3.80;100.00
17525;BME280;40431;52.198;9.902;2023-02-04T02:12:34;102088.84;;;3.80;100.00
17525;BME280;40431;52.198;9.902;2023-02-04T02:15:01;102101.38;;;3.78;100.00
17525;BME280;40431;52.198;9.902;2023-02-04T02:17:28;102097.72;;;3.87;100.00
17525;BME280;40431;52.198;9.902;2023-02-04T02:19:54;102103.03;;;3.96;100.00
17525;BME280;40431;52.198;9.902;2023-02-04T02:22:24;102097.66;;;3.93;100.00
17525;BME280;40431;52.198;9.902;2023-02-04T02:24:55;102109.38;;;3.81;100.00
17525;BME280;40431;52.198;9.902;2023-02-04T02:27:21;102114.75;;;3.83;100.00
17525;BME280;40431;52.198;9.902;2023-02-04T02:29:48;102111.16;;;3.84;100.00
17525;BME280;40431;52.198;9.902;2023-02-04T02:32:15;102112.09;;;3.78;100.00
17525;BME280;40431;52.198;9.902;2023-02-04T02:34:42;102130.84;;;3.81;100.00
17525;BME280;40431;52.198;9.902;2023-02-04T02:37:09;102135.38;;;3.75;100.00
17525;BME280;40431;52.198;9.902;2023-02-04T02:39:37;102147.03;;;3.74;100.00
17525;BME280;40431;52.198;9.902;2023-02-04T02:42:06;102147.06;;;3.66;100.00
17525;BME280;40431;52.198;9.902;2023-02-04T02:44:33;102145.28;;;3.65;100.00
17525;BME280;40431;52.198;9.902;2023-02-04T02:46:59;102154.25;;;3.61;100.00
17525;BME280;40431;52.198;9.902;2023-02-04T02:49:31;102150.72;;;3.56;100.00
17525;BME280;40431;52.198;9.902;2023-02-04T02:51:59;102161.47;;;3.53;100.00
17525;BME280;40431;52.198;9.902;2023-02-04T02:54:27;102158.78;;;3.53;100.00
17525;BME280;40431;52.198;9.902;2023-02-04T02:56:54;102172.19;;;3.53;100.00
17525;BME280;40431;52.198;9.902;2023-02-04T02:59:23;102178.47;;;3.48;100.00
17525;BME280;40431;52.198;9.902;2023-02-04T03:01:52;102171.38;;;3.38;100.00
17525;BME280;40431;52.198;9.902;2023-02-04T03:04:22;102184.81;;;3.29;100.00
17525;BME280;40431;52.198;9.902;2023-02-04T03:06:50;102183.91;;;3.33;100.00
17525;BME280;40431;52.198;9.902;2023-02-04T03:09:17;102195.56;;;3.26;100.00
17525;BME280;40431;52.198;9.902;2023-02-04T03:11:43;102195.53;;;3.35;100.00
17525;BME280;40431;52.198;9.902;2023-02-04T03:14:10;102202.66;;;3.36;100.00
17525;BME280;40431;52.198;9.902;2023-02-04T03:16:38;102202.69;;;3.30;100.00
17525;BME280;40431;52.198;9.902;2023-02-04T03:19:05;102215.22;;;3.28;100.00
17525;BME280;40431;52.198;9.902;2023-02-04T03:21:33;102223.25;;;3.28;100.00
17525;BME280;40431;52.198;9.902;2023-02-04T03:24:00;102229.53;;;3.24;100.00
17525;BME280;40431;52.198;9.902;2023-02-04T03:26:26;102233.97;;;3.22;100.00
17525;BME280;40431;52.198;9.902;2023-02-04T03:28:53;102247.44;;;3.15;100.00
17525;BME280;40431;52.198;9.902;2023-02-04T03:31:20;102254.56;;;3.13;100.00
17525;BME280;40431;52.198;9.902;2023-02-04T03:33:48;102259.06;;;3.11;100.00
17525;BME280;40431;52.198;9.902;2023-02-04T03:36:14;102270.69;;;3.01;100.00
17525;BME280;40431;52.198;9.902;2023-02-04T03:38:40;102279.63;;;2.97;100.00
17525;BME280;40431;52.198;9.902;2023-02-04T03:41:07;102282.28;;;3.01;100.00
17525;BME280;40431;52.198;9.902;2023-02-04T03:43:33;102285.00;;;2.95;100.00
17525;BME280;40431;52.198;9.902;2023-02-04T03:46:00;102291.25;;;2.88;100.00
17525;BME280;40431;52.198;9.902;2023-02-04T03:48:26;102293.94;;;2.87;100.00
17525;BME280;40431;52.198;9.902;2023-02-04T03:50:54;102297.50;;;2.86;100.00
17525;BME280;40431;52.198;9.902;2023-02-04T03:53:20;102292.16;;;2.79;100.00
17525;BME280;40431;52.198;9.902;2023-02-04T03:55:47;102296.63;;;2.76;100.00
17525;BME280;40431;52.198;9.902;2023-02-04T03:58:13;102306.44;;;2.81;100.00
17525;BME280;40431;52.198;9.902;2023-02-04T04:00:40;102306.44;;;2.81;100.00
17525;BME280;40431;52.198;9.902;2023-02-04T04:03:06;102315.38;;;2.83;100.00
17525;BME280;40431;52.198;9.902;2023-02-04T04:05:33;102317.16;;;2.81;100.00
17525;BME280;40431;52.198;9.902;2023-02-04T04:08:01;102324.28;;;2.86;100.00
17525;BME280;40431;52.198;9.902;2023-02-04T04:10:27;102324.31;;;2.89;100.00
17525;BME280;40431;52.198;9.902;2023-02-04T04:12:54;102325.16;;;2.94;100.00
17525;BME280;40431;52.198;9.902;2023-02-04T04:15:20;102330.53;;;2.92;100.00
17525;BME280;40431;52.198;9.902;2023-02-04T04:17:46;102333.22;;;2.97;100.00
17525;BME280;40431;52.198;9.902;2023-02-04T04:20:13;102344.81;;;2.99;100.00
17525;BME280;40431;52.198;9.902;2023-02-04T04:22:39;102345.72;;;3.01;100.00
17525;BME280;40431;52.198;9.902;2023-02-04T04:25:07;102338.56;;;3.00;100.00
17525;BME280;40431;52.198;9.902;2023-02-04T04:27:34;102346.63;;;3.00;100.00
17525;BME280;40431;52.198;9.902;2023-02-04T04:30:00;102347.53;;;2.91;100.00
17525;BME280;40431;52.198;9.902;2023-02-04T04:32:27;102342.16;;;2.87;100.00
17525;BME280;40431;52.198;9.902;2023-02-04T04:34:53;102351.09;;;2.86;100.00
17525;BME280;40431;52.198;9.902;2023-02-04T04:37:19;102354.69;;;2.84;100.00
17525;BME280;40431;52.198;9.902;2023-02-04T04:39:46;102364.50;;;2.89;100.00
17525;BME280;40431;52.198;9.902;2023-02-04T04:42:14;102374.31;;;2.93;100.00
17525;BME280;40431;52.198;9.902;2023-02-04T04:44:40;102379.69;;;2.82;100.00
17525;BME280;40431;52.198;9.902;2023-02-04T04:47:06;102381.47;;;2.80;100.00
17525;BME280;40431;52.198;9.902;2023-02-04T04:49:33;102385.94;;;2.81;100.00
17525;BME280;40431;52.198;9.902;2023-02-04T04:51:59;102399.34;;;2.79;100.00
17525;BME280;40431;52.198;9.902;2023-02-04T04:54:25;102386.81;;;2.78;100.00
17525;BME280;40431;52.198;9.902;2023-02-04T04:56:52;102394.84;;;2.77;100.00
17525;BME280;40431;52.198;9.902;2023-02-04T04:59:20;102400.22;;;2.78;100.00
17525;BME280;40431;52.198;9.902;2023-02-04T05:01:46;102420.75;;;2.79;100.00
17525;BME280;40431;52.198;9.902;2023-02-04T05:04:12;102404.69;;;2.79;100.00
17525;BME280;40431;52.198;9.902;2023-02-04T05:06:39;102411.81;;;2.85;100.00
17525;BME280;40431;52.198;9.902;2023-02-04T05:09:05;102416.31;;;2.88;100.00
17525;BME280;40431;52.198;9.902;2023-02-04T05:11:33;102413.63;;;2.88;100.00
17525;BME280;40431;52.198;9.902;2023-02-04T05:14:00;102415.38;;;2.87;100.00
17525;BME280;40431;52.198;9.902;2023-02-04T05:16:28;102427.00;;;2.81;100.00
17525;BME280;40431;52.198;9.902;2023-02-04T05:18:54;102424.34;;;2.75;100.00
17525;BME280;40431;52.198;9.902;2023-02-04T05:21:20;102428.78;;;2.73;100.00
17525;BME280;40431;52.198;9.902;2023-02-04T05:23:47;102433.22;;;2.71;100.00
17525;BME280;40431;52.198;9.902;2023-02-04T05:26:13;102438.59;;;2.71;100.00
17525;BME280;40431;52.198;9.902;2023-02-04T05:28:39;102433.22;;;2.68;100.00
17525;BME280;40431;52.198;9.902;2023-02-04T05:31:06;102435.00;;;2.63;100.00
17525;BME280;40431;52.198;9.902;2023-02-04T05:33:34;102431.44;;;2.61;100.00
17525;BME280;40431;52.198;9.902;2023-02-04T05:36:00;102440.34;;;2.60;100.00
17525;BME280;40431;52.198;9.902;2023-02-04T05:38:27;102451.03;;;2.50;100.00
17525;BME280;40431;52.198;9.902;2023-02-04T05:40:53;102453.69;;;2.41;100.00
17525;BME280;40431;52.198;9.902;2023-02-04T05:43:20;102459.94;;;2.37;100.00
17525;BME280;40431;52.198;9.902;2023-02-04T05:45:46;102465.25;;;2.32;100.00
17525;BME280;40431;52.198;9.902;2023-02-04T05:48:12;102479.50;;;2.30;100.00
17525;BME280;40431;52.198;9.902;2023-02-04T05:50:40;102488.50;;;2.38;100.00
17525;BME280;40431;52.198;9.902;2023-02-04T05:53:07;102488.47;;;2.30;100.00
17525;BME280;40431;52.198;9.902;2023-02-04T05:55:33;102487.59;;;2.31;100.00
17525;BME280;40431;52.198;9.902;2023-02-04T05:57:59;102489.34;;;2.28;100.00
17525;BME280;40431;52.198;9.902;2023-02-04T06:00:26;102494.69;;;2.26;100.00
17525;BME280;40431;52.198;9.902;2023-02-04T06:02:52;102493.78;;;2.23;100.00
17525;BME280;40431;52.198;9.902;2023-02-04T06:05:19;102498.22;;;2.16;100.00
17525;BME280;40431;52.198;9.902;2023-02-04T06:07:48;102502.63;;;2.14;100.00
17525;BME280;40431;52.198;9.902;2023-02-04T06:10:15;102511.53;;;2.05;100.00
17525;BME280;40431;52.198;9.902;2023-02-04T06:12:41;102505.25;;;2.00;100.00
17525;BME280;40431;52.198;9.902;2023-02-04T06:15:08;102515.06;;;2.01;100.00
17525;BME280;40431;52.198;9.902;2023-02-04T06:17:36;102516.84;;;1.99;100.00
17525;BME280;40431;52.198;9.902;2023-02-04T06:20:03;102513.28;;;1.97;100.00
17525;BME280;40431;52.198;9.902;2023-02-04T06:22:29;102526.66;;;2.00;100.00
17525;BME280;40431;52.198;9.902;2023-02-04T06:24:57;102524.84;;;1.97;100.00
17525;BME280;40431;52.198;9.902;2023-02-04T06:27:23;102530.22;;;1.97;100.00
17525;BME280;40431;52.198;9.902;2023-02-04T06:29:51;102532.84;;;1.93;100.00
17525;BME280;40431;52.198;9.902;2023-02-04T06:32:18;102539.91;;;1.81;100.00
17525;BME280;40431;52.198;9.902;2023-02-04T06:34:44;102538.09;;;1.74;100.00
17525;BME280;40431;52.198;9.902;2023-02-04T06:37:11;102539.84;;;1.72;100.00
17525;BME280;40431;52.198;9.902;2023-02-04T06:39:38;102545.13;;;1.66;100.00
17525;BME280;40431;52.198;9.902;2023-02-04T06:42:06;102545.19;;;1.69;100.00
17525;BME280;40431;52.198;9.902;2023-02-04T06:44:32;102546.94;;;1.67;100.00
17525;BME280;40431;52.198;9.902;2023-02-04T06:46:59;102553.22;;;1.71;100.00
17525;BME280;40431;52.198;9.902;2023-02-04T06:49:25;102555.88;;;1.69;100.00
17525;BME280;40431;52.198;9.902;2023-02-04T06:51:51;102561.25;;;1.72;100.00
17525;BME280;40431;52.198;9.902;2023-02-04T06:54:19;102563.00;;;1.70;100.00
17525;BME280;40431;52.198;9.902;2023-02-04T06:56:46;102565.66;;;1.69;100.00
17525;BME280;40431;52.198;9.902;2023-02-04T06:59:13;102579.00;;;1.64;100.00
17525;BME280;40431;52.198;9.902;2023-02-04T07:01:40;102575.41;;;1.59;100.00
17525;BME280;40431;52.198;9.902;2023-02-04T07:04:06;102570.97;;;1.62;100.00
17525;BME280;40431;52.198;9.902;2023-02-04T07:06:33;102574.53;;;1.61;100.00
17525;BME280;40431;52.198;9.902;2023-02-04T07:08:59;102579.81;;;1.57;100.00
17525;BME280;40431;52.198;9.902;2023-02-04T07:11:25;102585.22;;;1.58;100.00
17525;BME280;40431;52.198;9.902;2023-02-04T07:13:52;102596.78;;;1.59;100.00
17525;BME280;40431;52.198;9.902;2023-02-04T07:16:19;102602.16;;;1.62;100.00
17525;BME280;40431;52.198;9.902;2023-02-04T07:18:46;102609.28;;;1.60;100.00
17525;BME280;40431;52.198;9.902;2023-02-04T07:21:12;102604.81;;;1.60;100.00
17525;BME280;40431;52.198;9.902;2023-02-04T07:23:38;102618.19;;;1.60;100.00
17525;BME280;40431;52.198;9.902;2023-02-04T07:26:05;102614.66;;;1.63;100.00
17525;BME280;40431;52.198;9.902;2023-02-04T07:28:31;102627.16;;;1.64;100.00
17525;BME280;40431;52.198;9.902;2023-02-04T07:30:58;102623.63;;;1.68;100.00
17525;BME280;40431;52.198;9.902;2023-02-04T07:33:25;102633.44;;;1.69;100.00
17525;BME280;40431;52.198;9.902;2023-02-04T07:35:52;102628.09;;;1.71;100.00
17525;BME280;40431;52.198;9.902;2023-02-04T07:38:18;102637.94;;;1.73;100.00
17525;BME280;40431;52.198;9.902;2023-02-04T07:40:44;102648.66;;;1.76;100.00
17525;BME280;40431;52.198;9.902;2023-02-04T07:43:11;102643.31;;;1.79;100.00
17525;BME280;40431;52.198;9.902;2023-02-04T07:45:37;102661.13;;;1.76;100.00
17525;BME280;40431;52.198;9.902;2023-02-04T07:48:04;102665.56;;;1.77;100.00
17525;BME280;40431;52.198;9.902;2023-02-04T07:50:32;102667.38;;;1.76;100.00
17525;BME280;40431;52.198;9.902;2023-02-04T07:52:58;102681.69;;;1.81;100.00
17525;BME280;40431;52.198;9.902;2023-02-04T07:55:25;102683.50;;;1.87;100.00
17525;BME280;40431;52.198;9.902;2023-02-04T07:57:52;102681.78;;;1.91;100.00
17525;BME280;40431;52.198;9.902;2023-02-04T08:00:19;102685.38;;;1.94;100.00
17525;BME280;40431;52.198;9.902;2023-02-04T08:02:45;102689.00;;;1.99;100.00
17525;BME280;40431;52.198;9.902;2023-02-04T08:05:12;102680.06;;;2.02;100.00
17525;BME280;40431;52.198;9.902;2023-02-04T08:07:40;102698.84;;;2.05;100.00
17525;BME280;40431;52.198;9.902;2023-02-04T08:10:07;102687.28;;;2.06;100.00
17525;BME280;40431;52.198;9.902;2023-02-04T08:12:34;102694.44;;;2.09;100.00
17525;BME280;40431;52.198;9.902;2023-02-04T08:15:01;102699.81;;;2.15;100.00
17525;BME280;40431;52.198;9.902;2023-02-04T08:17:27;102699.88;;;2.20;100.00
17525;BME280;40431;52.198;9.902;2023-02-04T08:19:54;102702.56;;;2.23;100.00
17525;BME280;40431;52.198;9.902;2023-02-04T08:22:21;102710.59;;;2.24;100.00
17525;BME280;40431;52.198;9.902;2023-02-04T08:24:49;102709.72;;;2.27;100.00
17525;BME280;40431;52.198;9.902;2023-02-04T08:27:15;102704.41;;;2.30;100.00
17525;BME280;40431;52.198;9.902;2023-02-04T08:29:42;102713.38;;;2.35;100.00
17525;BME280;40431;52.198;9.902;2023-02-04T08:32:08;102713.41;;;2.41;100.00
17525;BME280;40431;52.198;9.902;2023-02-04T08:34:37;102700.91;;;2.43;100.00
17525;BME280;40431;52.198;9.902;2023-02-04T08:37:03;102700.97;;;2.49;100.00
17525;BME280;40431;52.198;9.902;2023-02-04T08:39:30;102696.53;;;2.50;100.00
17525;BME280;40431;52.198;9.902;2023-02-04T08:41:58;102693.88;;;2.55;100.00
17525;BME280;40431;52.198;9.902;2023-02-04T08:44:25;102697.47;;;2.57;100.00
17525;BME280;40431;52.198;9.902;2023-02-04T08:46:51;102696.63;;;2.65;100.00
17525;BME280;40431;52.198;9.902;2023-02-04T08:49:17;102694.00;;;2.72;100.00
17525;BME280;40431;52.198;9.902;2023-02-04T08:51:44;102701.09;;;2.71;100.00
17525;BME280;40431;52.198;9.902;2023-02-04T08:54:10;102709.19;;;2.76;100.00
17525;BME280;40431;52.198;9.902;2023-02-04T08:56:36;102712.75;;;2.78;100.00
17525;BME280;40431;52.198;9.902;2023-02-04T08:59:04;102719.91;;;2.80;100.00
17525;BME280;40431;52.198;9.902;2023-02-04T09:01:31;102719.03;;;2.78;100.00
17525;BME280;40431;52.198;9.902;2023-02-04T09:03:57;102727.06;;;2.81;100.00
17525;BME280;40431;52.198;9.902;2023-02-04T09:06:23;102724.44;;;2.84;100.00
17525;BME280;40431;52.198;9.902;2023-02-04T09:08:50;102744.13;;;2.94;100.00
17525;BME280;40431;52.198;9.902;2023-02-04T09:11:16;102737.91;;;2.95;100.00
17525;BME280;40431;52.198;9.902;2023-02-04T09:13:43;102744.13;;;2.96;100.00
17525;BME280;40431;52.198;9.902;2023-02-04T09:16:10;102737.84;;;2.88;100.00
17525;BME280;40431;52.198;9.902;2023-02-04T09:18:37;102741.44;;;2.91;100.00
17525;BME280;40431;52.198;9.902;2023-02-04T09:21:06;102742.34;;;2.95;100.00
17525;BME280;40431;52.198;9.902;2023-02-04T09:23:33;102752.19;;;2.97;100.00
17525;BME280;40431;52.198;9.902;2023-02-04T09:25:59;102744.19;;;3.04;100.00
17525;BME280;40431;52.198;9.902;2023-02-04T09:28:28;102762.09;;;3.12;100.00
17525;BME280;40431;52.198;9.902;2023-02-04T09:30:55;102763.88;;;3.13;100.00
17525;BME280;40431;52.198;9.902;2023-02-04T09:33:23;102760.31;;;3.17;100.00
17525;BME280;40431;52.198;9.902;2023-02-04T09:35:49;102765.72;;;3.21;100.00
17525;BME280;40431;52.198;9.902;2023-02-04T09:38:16;102780.94;;;3.26;100.00
17525;BME280;40431;52.198;9.902;2023-02-04T09:40:46;102774.66;;;3.24;100.00
17525;BME280;40431;52.198;9.902;2023-02-04T09:43:15;102774.72;;;3.32;100.00
17525;BME280;40431;52.198;9.902;2023-02-04T09:45:43;102780.06;;;3.32;100.00
17525;BME280;40431;52.198;9.902;2023-02-04T09:48:12;102781.88;;;3.36;100.00
17525;BME280;40431;52.198;9.902;2023-02-04T09:50:40;102778.31;;;3.40;100.00
17525;BME280;40431;52.198;9.902;2023-02-04T09:53:12;102781.00;;;3.37;100.00
17525;BME280;40431;52.198;9.902;2023-02-04T09:55:42;102783.66;;;3.32;100.00
17525;BME280;40431;52.198;9.902;2023-02-04T09:58:12;102779.16;;;3.25;100.00
17525;BME280;40431;52.198;9.902;2023-02-04T10:00:40;102787.22;;;3.30;100.00
17525;BME280;40431;52.198;9.902;2023-02-04T10:03:12;102789.00;;;3.29;100.00
17525;BME280;40431;52.198;9.902;2023-02-04T10:05:41;102784.56;;;3.33;100.00
17525;BME280;40431;52.198;9.902;2023-02-04T10:08:12;102789.91;;;3.36;100.00
17525;BME280;40431;52.198;9.902;2023-02-04T10:10:39;102789.97;;;3.39;100.00
17525;BME280;40431;52.198;9.902;2023-02-04T10:13:13;102789.97;;;3.44;100.00
17525;BME280;40431;52.198;9.902;2023-02-04T10:15:41;102790.88;;;3.49;100.00
17525;BME280;40431;52.198;9.902;2023-02-04T10:18:08;102791.81;;;3.56;100.00
17525;BME280;40431;52.198;9.902;2023-02-04T10:20:38;102807.03;;;3.61;100.00
17525;BME280;40431;52.198;9.902;2023-02-04T10:23:08;102816.00;;;3.66;100.00
17525;BME280;40431;52.198;9.902;2023-02-04T10:25:36;102814.22;;;3.68;100.00
17525;BME280;40431;52.198;9.902;2023-02-04T10:28:02;102818.66;;;3.66;100.00
17525;BME280;40431;52.198;9.902;2023-02-04T10:30:36;102825.81;;;3.63;100.00
17525;BME280;40431;52.198;9.902;2023-02-04T10:33:12;102820.44;;;3.55;100.00
17525;BME280;40431;52.198;9.902;2023-02-04T10:35:44;102816.81;;;3.50;100.00
17525;BME280;40431;52.198;9.902;2023-02-04T10:38:12;102812.38;;;3.57;100.00
17525;BME280;40431;52.198;9.902;2023-02-04T10:40:38;102820.44;;;3.63;100.00
17525;BME280;40431;52.198;9.902;2023-02-04T10:43:07;102824.97;;;3.70;100.00
17525;BME280;40431;52.198;9.902;2023-02-04T10:45:35;102825.81;;;3.63;100.00
17525;BME280;40431;52.198;9.902;2023-02-04T10:48:03;102827.63;;;3.70;100.00
17525;BME280;40431;52.198;9.902;2023-02-04T10:50:29;102833.94;;;3.75;100.00
17525;BME280;40431;52.198;9.902;2023-02-04T10:52:57;102842.88;;;3.77;100.00
17525;BME280;40431;52.198;9.902;2023-02-04T10:55:49;102841.09;;;3.85;100.00
17525;BME280;40431;52.198;9.902;2023-02-04T10:58:17;102833.97;;;3.91;100.00
17525;BME280;40431;52.198;9.902;2023-02-04T11:00:45;102834.84;;;3.82;100.00
17525;BME280;40431;52.198;9.902;2023-02-04T11:03:15;102835.69;;;3.73;100.00
17525;BME280;40431;52.198;9.902;2023-02-04T11:05:43;102833.00;;;3.67;100.00
17525;BME280;40431;52.198;9.902;2023-02-04T11:08:19;102824.03;;;3.66;100.00
17525;BME280;40431;52.198;9.902;2023-02-04T11:10:50;102820.50;;;3.74;100.00
17525;BME280;40431;52.198;9.902;2023-02-04T11:13:22;102825.88;;;3.80;100.00
17525;BME280;40431;52.198;9.902;2023-02-04T11:15:54;102818.75;;;3.83;100.00
17525;BME280;40431;52.198;9.902;2023-02-04T11:18:43;102823.25;;;3.94;100.00
17525;BME280;40431;52.198;9.902;2023-02-04T11:21:13;102828.63;;;4.00;100.00
17525;BME280;40431;52.198;9.902;2023-02-04T11:23:40;102823.28;;;4.03;100.00
17525;BME280;40431;52.198;9.902;2023-02-04T11:26:10;102823.22;;;3.89;95.50
17525;BME280;40431;52.198;9.902;2023-02-04T11:28:45;102828.59;;;3.84;96.40
17525;BME280;40431;52.198;9.902;2023-02-04T11:31:13;102825.00;;;3.78;97.22
17525;BME280;40431;52.198;9.902;2023-02-04T11:34:05;102838.38;;;3.75;98.53
17525;BME280;40431;52.198;9.902;2023-02-04T11:36:33;102830.31;;;3.72;97.35
17525;BME280;40431;52.198;9.902;2023-02-04T11:39:06;102835.72;;;3.76;97.41
17525;BME280;40431;52.198;9.902;2023-02-04T11:41:36;102837.53;;;3.83;97.72
17525;BME280;40431;52.198;9.902;2023-02-04T11:44:03;102836.69;;;3.94;98.58
17525;BME280;40431;52.198;9.902;2023-02-04T11:46:29;102832.16;;;3.87;97.12
17525;BME280;40431;52.198;9.902;2023-02-04T11:48:57;102836.69;;;3.92;97.84
17525;BME280;40431;52.198;9.902;2023-02-04T11:51:27;102826.81;;;3.93;98.42
17525;BME280;40431;52.198;9.902;2023-02-04T11:53:55;102833.06;;;3.92;97.38
17525;BME280;40431;52.198;9.902;2023-02-04T11:56:22;102835.75;;;3.93;97.98
17525;BME280;40431;52.198;9.902;2023-02-04T11:58:50;102844.72;;;3.97;99.02
17525;BME280;40431;52.198;9.902;2023-02-04T12:01:17;102850.13;;;4.03;99.05
17525;BME280;40431;52.198;9.902;2023-02-04T12:03:46;102848.34;;;4.02;98.98
17525;BME280;40431;52.198;9.902;2023-02-04T12:06:20;102847.44;;;4.05;98.80
17525;BME280;40431;52.198;9.902;2023-02-04T12:08:46;102842.97;;;4.02;98.31
17525;BME280;40431;52.198;9.902;2023-02-04T12:11:23;102841.19;;;4.10;98.23
17525;BME280;40431;52.198;9.902;2023-02-04T12:13:54;102840.31;;;4.10;97.25
17525;BME280;40431;52.198;9.902;2023-02-04T12:16:22;102835.81;;;4.07;96.21
17525;BME280;40431;52.198;9.902;2023-02-04T12:18:49;102836.69;;;4.11;97.81
17525;BME280;40431;52.198;9.902;2023-02-04T12:21:15;102829.56;;;4.08;98.11
17525;BME280;40431;52.198;9.902;2023-02-04T12:23:43;102840.31;;;4.22;99.38
17525;BME280;40431;52.198;9.902;2023-02-04T12:26:10;102839.44;;;4.37;97.79
17525;BME280;40431;52.198;9.902;2023-02-04T12:28:36;102840.34;;;4.41;95.36
17525;BME280;40431;52.198;9.902;2023-02-04T12:31:04;102843.03;;;4.33;93.70
17525;BME280;40431;52.198;9.902;2023-02-04T12:33:31;102837.66;;;4.33;94.21
17525;BME280;40431;52.198;9.902;2023-02-04T12:35:57;102844.81;;;4.25;93.46
17525;BME280;40431;52.198;9.902;2023-02-04T12:38:23;102843.03;;;4.27;92.51
17525;BME280;40431;52.198;9.902;2023-02-04T12:40:51;102848.41;;;4.27;91.41
17525;BME280;40431;52.198;9.902;2023-02-04T12:43:18;102843.91;;;4.32;92.88
17525;BME280;40431;52.198;9.902;2023-02-04T12:45:44;102846.63;;;4.35;94.52
17525;BME280;40431;52.198;9.902;2023-02-04T12:48:15;102847.50;;;4.39;94.75
17525;BME280;40431;52.198;9.902;2023-02-04T12:50:41;102847.50;;;4.39;93.20
17525;BME280;40431;52.198;9.902;2023-02-04T12:53:07;102852.88;;;4.32;93.07